Time;durP1;ratioP1;P1;durP2;ratioP2;P2;SDS_P1;SDS_P2;PMS_P1;PMS_P2;Temp;Humidity;BMP_temperature;BMP_pressure;BME280_temperature;BME280_humidity;BME280_pressure;Samples;Min_cycle;Max_cycle;Signal;HPM_P1;HPM_P2
2022/02/16 00:00:31;;;;;;;3.80;1.20;;;5.20;1.00;;;;;;7355226;19;20457;-60
2022/02/16 00:03:01;;;;;;;1.90;1.10;;;5.20;1.00;;;;;;7360334;19;20039;-60
2022/02/16 00:05:36;;;;;;;2.85;1.10;;;5.20;1.00;;;;;;7381833;19;20057;-60
2022/02/16 00:08:07;;;;;;;6.30;1.77;;;5.20;1.00;;;;;;7361238;19;20015;-60
2022/02/16 00:10:37;;;;;;;3.65;1.30;;;5.20;1.00;;;;;;7354601;19;20394;-60
2022/02/16 00:13:07;;;;;;;2.72;1.05;;;5.20;1.00;;;;;;7359664;19;20386;-59
2022/02/16 00:15:36;;;;;;;4.22;1.30;;;5.10;1.00;;;;;;7358512;19;20012;-60
2022/02/16 00:18:07;;;;;;;3.13;1.10;;;5.20;1.00;;;;;;7361509;19;20031;-60
2022/02/16 00:20:40;;;;;;;6.75;1.05;;;5.10;1.00;;;;;;7377463;19;20078;-60
2022/02/16 00:23:10;;;;;;;3.80;1.40;;;5.10;1.00;;;;;;7360025;19;20451;-60
2022/02/16 00:25:40;;;;;;;7.10;1.40;;;5.20;1.00;;;;;;7358940;19;20478;-60
2022/02/16 00:28:10;;;;;;;2.50;1.50;;;5.20;1.00;;;;;;7359111;19;20525;-60
2022/02/16 00:30:40;;;;;;;5.75;1.20;;;5.20;1.00;;;;;;7356312;19;20074;-59
2022/02/16 00:33:10;;;;;;;1.88;1.10;;;5.20;1.00;;;;;;7367106;19;20041;-58
2022/02/16 00:35:42;;;;;;;3.10;0.80;;;5.20;1.00;;;;;;7387710;19;20745;-60
2022/02/16 00:38:12;;;;;;;4.32;1.20;;;5.30;1.00;;;;;;7366137;19;20072;-60
2022/02/16 00:40:42;;;;;;;4.15;1.00;;;5.30;1.00;;;;;;7360482;19;20736;-59
2022/02/16 00:43:12;;;;;;;3.92;1.33;;;5.30;1.00;;;;;;7369890;19;20074;-59
2022/02/16 00:45:42;;;;;;;4.10;1.27;;;5.40;1.00;;;;;;7368118;19;20006;-60
2022/02/16 00:48:14;;;;;;;4.32;1.40;;;5.40;1.00;;;;;;7364937;19;20014;-60
2022/02/16 00:50:47;;;;;;;2.85;1.10;;;5.50;1.00;;;;;;7381507;19;20018;-60
2022/02/16 00:53:16;;;;;;;2.10;1.00;;;5.50;1.00;;;;;;7368199;19;20011;-60
2022/02/16 00:55:47;;;;;;;2.42;0.90;;;5.60;1.00;;;;;;7367071;19;20518;-59
2022/02/16 00:58:17;;;;;;;3.40;1.30;;;5.60;1.00;;;;;;7366189;19;20010;-59
2022/02/16 01:00:47;;;;;;;2.75;0.85;;;5.60;1.00;;;;;;7361615;19;20010;-60
2022/02/16 01:03:17;;;;;;;4.50;1.45;;;5.60;1.00;;;;;;7368228;19;20091;-60
2022/02/16 01:05:50;;;;;;;3.90;1.25;;;5.70;1.00;;;;;;7369044;19;20078;-61
2022/02/16 01:08:20;;;;;;;5.35;1.30;;;5.70;1.00;;;;;;7387724;19;20040;-60
2022/02/16 01:10:50;;;;;;;4.57;0.98;;;5.70;1.00;;;;;;7359001;19;20086;-60
2022/02/16 01:13:20;;;;;;;4.43;1.30;;;5.70;1.00;;;;;;7366281;19;20419;-60
2022/02/16 01:15:50;;;;;;;3.38;0.88;;;5.80;1.00;;;;;;7367941;19;20085;-60
2022/02/16 01:18:19;;;;;;;2.72;1.02;;;5.80;1.00;;;;;;7366788;19;20081;-59
2022/02/16 01:20:52;;;;;;;3.45;1.02;;;5.80;1.00;;;;;;7358545;19;20541;-59
2022/02/16 01:23:46;;;;;;;3.13;0.90;;;5.80;1.00;;;;;;7386897;19;20351;-62
2022/02/16 01:26:22;;;;;;;7.90;1.30;;;5.80;1.00;;;;;;7365539;19;20003;-59
2022/02/16 01:28:52;;;;;;;4.03;0.98;;;5.80;1.00;;;;;;7361496;19;20018;-59
2022/02/16 01:31:22;;;;;;;2.70;0.90;;;5.80;1.00;;;;;;7364978;19;21344;-59
2022/02/16 01:33:53;;;;;;;1.30;0.82;;;5.80;1.00;;;;;;7365872;19;20580;-60
2022/02/16 01:36:26;;;;;;;4.05;0.98;;;5.80;1.00;;;;;;7365982;19;20077;-59
2022/02/16 01:38:56;;;;;;;3.05;1.00;;;5.70;1.00;;;;;;7362364;19;20010;-59
2022/02/16 01:41:25;;;;;;;2.95;0.98;;;5.80;1.00;;;;;;7386863;19;20009;-59
2022/02/16 01:43:56;;;;;;;4.63;0.82;;;5.80;1.00;;;;;;7366096;19;20010;-59
2022/02/16 01:46:26;;;;;;;2.38;1.10;;;5.70;1.00;;;;;;7365598;19;20035;-59
2022/02/16 01:48:56;;;;;;;1.55;0.70;;;5.80;1.00;;;;;;7360429;19;20093;-59
2022/02/16 01:51:29;;;;;;;4.82;1.60;;;5.80;1.00;;;;;;7363960;19;20375;-59
2022/02/16 01:53:59;;;;;;;4.80;1.00;;;5.80;1.00;;;;;;7364915;19;20044;-59
2022/02/16 01:56:29;;;;;;;2.97;0.80;;;5.80;1.00;;;;;;7386077;19;20397;-59
2022/02/16 01:58:59;;;;;;;1.55;0.73;;;5.80;1.00;;;;;;7359472;19;20037;-59
2022/02/16 02:01:31;;;;;;;3.75;1.50;;;5.80;1.00;;;;;;7363152;19;20014;-59
2022/02/16 02:04:01;;;;;;;2.88;0.73;;;5.80;1.00;;;;;;7365895;19;20045;-59
2022/02/16 02:06:34;;;;;;;2.28;0.70;;;5.90;1.00;;;;;;7365723;19;20021;-60
2022/02/16 02:09:04;;;;;;;1.42;0.82;;;5.90;1.00;;;;;;7359615;19;20078;-59
2022/02/16 02:11:34;;;;;;;3.55;0.90;;;5.90;1.00;;;;;;7384497;19;20014;-59
2022/02/16 02:14:06;;;;;;;2.38;1.00;;;5.90;1.00;;;;;;7363852;19;20010;-59
2022/02/16 02:16:38;;;;;;;4.63;0.98;;;5.90;1.00;;;;;;7366077;19;20011;-60
2022/02/16 02:19:09;;;;;;;2.42;0.93;;;5.90;1.00;;;;;;7356693;19;20110;-59
2022/02/16 02:21:41;;;;;;;1.48;0.75;;;5.90;1.00;;;;;;7356956;19;20014;-58
2022/02/16 02:24:11;;;;;;;2.28;1.05;;;5.90;1.00;;;;;;7363023;19;20007;-59
2022/02/16 02:26:44;;;;;;;3.17;1.05;;;5.90;1.00;;;;;;7386898;19;20018;-59
2022/02/16 02:29:15;;;;;;;2.42;0.80;;;5.90;1.00;;;;;;7356268;19;20019;-60
2022/02/16 02:31:44;;;;;;;4.22;0.98;;;5.90;1.00;;;;;;7361837;19;20002;-58
2022/02/16 02:34:14;;;;;;;4.68;0.80;;;5.90;1.00;;;;;;7364145;19;20006;-59
2022/02/16 02:36:47;;;;;;;2.50;0.77;;;5.90;1.00;;;;;;7366301;19;20086;-59
2022/02/16 02:39:18;;;;;;;3.00;1.40;;;5.90;1.00;;;;;;7360006;19;20018;-59
2022/02/16 02:41:48;;;;;;;2.88;0.80;;;6.00;1.00;;;;;;7382940;19;20080;-59
2022/02/16 02:44:17;;;;;;;2.90;0.88;;;6.00;1.00;;;;;;7364255;19;20010;-58
2022/02/16 02:46:47;;;;;;;2.67;0.95;;;6.00;1.00;;;;;;7363897;19;20018;-59
2022/02/16 02:49:17;;;;;;;2.40;1.10;;;6.00;1.00;;;;;;7358463;19;20403;-60
2022/02/16 02:51:50;;;;;;;3.20;0.52;;;6.00;1.00;;;;;;7364405;19;20086;-60
2022/02/16 02:54:20;;;;;;;1.67;0.73;;;6.10;1.00;;;;;;7360924;19;20027;-60
2022/02/16 02:56:50;;;;;;;3.65;0.80;;;6.10;1.00;;;;;;7385394;19;20011;-59
2022/02/16 02:59:20;;;;;;;3.83;0.77;;;6.00;1.00;;;;;;7358216;19;20052;-60
2022/02/16 03:01:50;;;;;;;3.70;0.80;;;6.00;1.00;;;;;;7363628;19;20011;-59
2022/02/16 03:04:20;;;;;;;2.08;0.80;;;6.00;1.00;;;;;;7364277;19;20489;-61
2022/02/16 03:06:52;;;;;;;2.95;0.68;;;6.00;1.00;;;;;;7364205;19;20006;-60
2022/02/16 03:09:22;;;;;;;5.45;0.80;;;6.10;1.00;;;;;;7358177;19;20014;-60
2022/02/16 03:11:52;;;;;;;3.83;0.90;;;6.10;1.00;;;;;;7362723;19;20018;-60
2022/02/16 03:14:22;;;;;;;2.75;0.70;;;6.00;1.00;;;;;;7384490;19;20017;-60
2022/02/16 03:16:54;;;;;;;0.70;0.47;;;6.10;1.00;;;;;;7361772;19;20367;-59
2022/02/16 03:19:25;;;;;;;1.50;0.82;;;6.10;1.00;;;;;;7356907;19;20006;-59
2022/02/16 03:21:59;;;;;;;1.40;0.65;;;6.10;1.00;;;;;;7362454;19;20379;-59
2022/02/16 03:24:31;;;;;;;2.20;0.80;;;6.10;1.00;;;;;;7363802;19;20026;-59
2022/02/16 03:27:01;;;;;;;4.63;0.80;;;6.10;1.00;;;;;;7361410;19;20027;-58
2022/02/16 03:29:31;;;;;;;1.98;0.75;;;6.10;1.00;;;;;;7377235;19;20206;-60
2022/02/16 03:32:01;;;;;;;3.47;0.70;;;6.10;1.00;;;;;;7361325;19;20082;-59
2022/02/16 03:34:31;;;;;;;0.75;0.43;;;6.10;1.00;;;;;;7363046;19;20028;-60
2022/02/16 03:37:04;;;;;;;2.63;0.60;;;6.10;1.00;;;;;;7363021;19;20467;-60
2022/02/16 03:39:34;;;;;;;1.17;0.57;;;6.10;1.00;;;;;;7358207;19;20010;-59
2022/02/16 03:42:05;;;;;;;1.58;0.60;;;6.10;1.00;;;;;;7360969;19;20036;-59
2022/02/16 03:44:35;;;;;;;2.13;0.50;;;6.10;1.00;;;;;;7384683;19;20070;-59
2022/02/16 03:47:06;;;;;;;1.88;0.73;;;6.10;1.00;;;;;;7355994;19;20453;-59
2022/02/16 03:49:35;;;;;;;0.82;0.43;;;6.10;1.00;;;;;;7355180;19;21863;-59
2022/02/16 03:52:09;;;;;;;2.50;0.60;;;6.10;1.00;;;;;;7360556;19;20033;-59
2022/02/16 03:54:39;;;;;;;1.55;0.73;;;6.10;1.00;;;;;;7362934;19;20023;-59
2022/02/16 03:57:11;;;;;;;3.83;0.70;;;6.10;1.00;;;;;;7363193;19;20021;-60
2022/02/16 03:59:41;;;;;;;1.67;0.60;;;6.10;1.00;;;;;;7376492;19;20018;-60
2022/02/16 04:02:11;;;;;;;1.00;0.60;;;6.10;1.00;;;;;;7360643;19;20082;-60
2022/02/16 04:04:41;;;;;;;1.95;0.90;;;6.10;1.00;;;;;;7362543;19;20075;-60
2022/02/16 04:07:13;;;;;;;1.05;0.52;;;6.10;1.00;;;;;;7369591;19;20049;-59
2022/02/16 04:09:46;;;;;;;0.50;0.35;;;6.10;1.00;;;;;;7362334;19;20007;-59
2022/02/16 04:12:16;;;;;;;1.13;0.50;;;6.00;1.00;;;;;;7367244;19;20035;-59
2022/02/16 04:14:47;;;;;;;1.70;0.50;;;6.00;1.00;;;;;;7390149;19;20011;-60
2022/02/16 04:17:17;;;;;;;1.33;0.50;;;6.00;1.00;;;;;;7370289;19;20032;-60
2022/02/16 04:19:48;;;;;;;0.70;0.50;;;6.10;1.00;;;;;;7360015;19;20007;-59
2022/02/16 04:22:21;;;;;;;0.95;0.50;;;6.10;1.00;;;;;;7368248;19;20013;-59
2022/02/16 04:24:51;;;;;;;2.33;0.40;;;6.10;1.00;;;;;;7368910;19;20010;-59
2022/02/16 04:27:21;;;;;;;1.38;0.50;;;6.10;1.00;;;;;;7368901;19;20098;-60
2022/02/16 04:29:51;;;;;;;3.08;0.60;;;6.10;1.00;;;;;;7370418;19;20015;-59
2022/02/16 04:32:21;;;;;;;0.75;0.43;;;6.10;1.00;;;;;;7387298;19;20015;-59
2022/02/16 04:34:51;;;;;;;1.60;0.63;;;6.10;1.00;;;;;;7365859;19;20395;-59
2022/02/16 04:37:23;;;;;;;2.33;0.60;;;6.10;1.00;;;;;;7367724;19;20101;-60
2022/02/16 04:39:53;;;;;;;3.40;0.90;;;6.20;1.00;;;;;;7362123;19;20014;-60
2022/02/16 04:42:23;;;;;;;1.38;0.40;;;6.10;1.00;;;;;;7369104;19;20523;-60
2022/02/16 04:44:53;;;;;;;1.00;0.52;;;6.20;1.00;;;;;;7365544;19;20024;-60
2022/02/16 04:47:23;;;;;;;2.70;0.93;;;6.20;1.00;;;;;;7388827;19;20651;-59
2022/02/16 04:49:53;;;;;;;1.02;0.52;;;6.20;1.00;;;;;;7360712;19;20010;-59
2022/02/16 04:52:34;;;;;;;0.88;0.30;;;6.20;1.00;;;;;;7368835;19;20090;-60
2022/02/16 04:55:06;;;;;;;1.40;0.60;;;6.20;1.00;;;;;;7365466;19;20044;-60
2022/02/16 04:57:36;;;;;;;1.08;0.40;;;6.20;1.00;;;;;;7367055;19;20030;-60
2022/02/16 05:00:08;;;;;;;0.95;0.40;;;6.20;1.00;;;;;;7358696;19;20078;-60
2022/02/16 05:02:40;;;;;;;0.87;0.50;;;6.20;1.00;;;;;;7391185;19;20039;-59
2022/02/16 05:05:13;;;;;;;0.85;0.50;;;6.20;1.00;;;;;;7368044;19;20010;-59
2022/02/16 05:07:45;;;;;;;1.42;0.60;;;6.20;1.00;;;;;;7365449;19;20497;-60
2022/02/16 05:10:15;;;;;;;0.70;0.50;;;6.30;1.00;;;;;;7357308;19;20042;-59
2022/02/16 05:12:45;;;;;;;1.48;0.50;;;6.20;1.00;;;;;;7367281;19;20010;-58
2022/02/16 05:15:15;;;;;;;1.10;0.40;;;6.30;1.00;;;;;;7366336;19;20063;-59
2022/02/16 05:17:45;;;;;;;0.95;0.47;;;6.30;1.00;;;;;;7385307;19;20078;-59
2022/02/16 05:20:15;;;;;;;0.60;0.38;;;6.30;1.00;;;;;;7357046;19;20083;-60
2022/02/16 05:22:47;;;;;;;1.60;0.50;;;6.30;1.00;;;;;;7365536;19;20640;-60
2022/02/16 05:25:17;;;;;;;0.63;0.30;;;6.30;1.00;;;;;;7367244;19;20538;-59
2022/02/16 05:27:47;;;;;;;1.17;0.60;;;6.20;1.00;;;;;;7366877;19;20010;-59
2022/02/16 05:30:17;;;;;;;2.92;0.65;;;6.20;1.00;;;;;;7356742;19;20021;-60
2022/02/16 05:32:47;;;;;;;2.05;0.50;;;6.30;1.00;;;;;;7386934;19;20014;-59
2022/02/16 05:35:17;;;;;;;0.63;0.40;;;6.20;1.00;;;;;;7365077;19;20436;-60
2022/02/16 05:37:51;;;;;;;0.57;0.40;;;6.30;1.00;;;;;;7366670;19;20006;-59
2022/02/16 05:40:21;;;;;;;1.73;0.38;;;6.20;1.00;;;;;;7357038;19;20015;-58
2022/02/16 05:42:51;;;;;;;0.65;0.40;;;6.30;1.00;;;;;;7363408;19;20022;-59
2022/02/16 05:45:20;;;;;;;1.88;0.52;;;6.30;1.00;;;;;;7365640;19;20014;-59
2022/02/16 05:47:50;;;;;;;0.75;0.30;;;6.30;1.00;;;;;;7382140;19;20084;-60
2022/02/16 05:50:20;;;;;;;0.60;0.43;;;6.30;1.00;;;;;;7377499;19;20010;-61
2022/02/16 05:52:53;;;;;;;1.83;0.40;;;6.30;1.00;;;;;;7362656;19;20081;-59
2022/02/16 05:55:23;;;;;;;1.00;0.40;;;6.30;1.00;;;;;;7364939;19;20006;-59
2022/02/16 05:57:53;;;;;;;1.70;0.45;;;6.30;1.00;;;;;;7365003;19;20006;-59
2022/02/16 06:00:23;;;;;;;1.00;0.35;;;6.30;1.00;;;;;;7357816;19;20014;-58
2022/02/16 06:02:52;;;;;;;1.77;0.88;;;6.30;1.00;;;;;;7362940;19;20018;-59
2022/02/16 06:05:23;;;;;;;2.53;0.50;;;6.30;1.00;;;;;;7385405;19;20010;-59
2022/02/16 06:07:55;;;;;;;0.75;0.40;;;6.30;1.00;;;;;;7364028;19;20081;-60
2022/02/16 06:10:25;;;;;;;1.23;0.35;;;6.30;1.00;;;;;;7357614;19;20009;-60
2022/02/16 06:12:55;;;;;;;1.35;0.50;;;6.30;1.00;;;;;;7365055;19;20430;-58
2022/02/16 06:15:26;;;;;;;0.40;0.30;;;6.30;1.00;;;;;;7364042;19;20354;-60
2022/02/16 06:17:56;;;;;;;1.83;0.43;;;6.40;1.00;;;;;;7363738;19;20043;-60
2022/02/16 06:20:26;;;;;;;1.15;0.43;;;6.40;1.00;;;;;;7377811;19;20006;-60
2022/02/16 06:22:59;;;;;;;1.20;0.70;;;6.30;1.00;;;;;;7364505;19;20077;-59
2022/02/16 06:25:29;;;;;;;4.72;0.55;;;6.40;1.00;;;;;;7363297;19;20097;-58
2022/02/16 06:28:03;;;;;;;2.25;0.68;;;6.40;1.00;;;;;;7363248;19;20010;-60
2022/02/16 06:30:33;;;;;;;0.73;0.40;;;6.40;1.00;;;;;;7354010;19;20094;-59
2022/02/16 06:33:03;;;;;;;4.47;0.80;;;6.40;1.00;;;;;;7364364;19;20018;-59
2022/02/16 06:35:34;;;;;;;0.70;0.40;;;6.50;1.00;;;;;;7385858;19;20019;-60
2022/02/16 06:38:06;;;;;;;1.13;0.50;;;6.50;1.00;;;;;;7360026;19;20010;-59
2022/02/16 06:40:36;;;;;;;0.70;0.40;;;6.50;1.00;;;;;;7353905;19;20002;-60
2022/02/16 06:43:06;;;;;;;0.85;0.40;;;6.60;1.00;;;;;;7363885;19;20006;-59
2022/02/16 06:45:36;;;;;;;0.88;0.40;;;6.60;1.30;;;;;;7364352;19;20006;-60
2022/02/16 06:48:06;;;;;;;0.70;0.32;;;6.60;1.00;;;;;;7362159;19;20026;-60
2022/02/16 06:50:37;;;;;;;2.15;0.50;;;6.60;1.00;;;;;;7374893;19;20105;-59
2022/02/16 06:53:09;;;;;;;1.52;0.38;;;6.60;1.30;;;;;;7362822;19;20466;-60
2022/02/16 06:55:39;;;;;;;0.77;0.40;;;6.60;1.20;;;;;;7362605;19;20013;-59
2022/02/16 06:58:09;;;;;;;3.80;0.40;;;6.70;1.00;;;;;;7361488;19;20031;-60
2022/02/16 07:00:40;;;;;;;0.73;0.47;;;6.70;1.10;;;;;;7353610;19;20035;-60
2022/02/16 07:03:12;;;;;;;0.88;0.60;;;6.70;1.10;;;;;;7363311;19;20059;-59
2022/02/16 07:05:42;;;;;;;1.48;0.60;;;6.70;1.90;;;;;;7384031;19;20018;-60
2022/02/16 07:08:15;;;;;;;0.40;0.30;;;6.70;2.70;;;;;;7363041;19;20014;-60
2022/02/16 07:10:46;;;;;;;1.80;0.60;;;6.70;2.70;;;;;;7352276;19;20011;-59
2022/02/16 07:13:16;;;;;;;0.70;0.30;;;6.80;2.80;;;;;;7361108;19;20406;-60
2022/02/16 07:15:46;;;;;;;0.50;0.22;;;6.70;4.00;;;;;;7362322;19;20007;-60
2022/02/16 07:18:16;;;;;;;1.23;0.40;;;6.70;4.70;;;;;;7363067;19;20074;-60
2022/02/16 07:20:46;;;;;;;1.58;0.50;;;6.70;5.00;;;;;;7373232;19;20085;-59
2022/02/16 07:23:18;;;;;;;0.60;0.40;;;6.70;6.00;;;;;;7360889;19;20015;-59
2022/02/16 07:25:48;;;;;;;1.00;0.50;;;6.60;7.10;;;;;;7360328;19;20002;-60
2022/02/16 07:28:18;;;;;;;0.65;0.40;;;6.60;7.90;;;;;;7362144;19;20494;-59
2022/02/16 07:30:48;;;;;;;1.27;0.40;;;6.60;8.40;;;;;;7354074;19;20014;-59
2022/02/16 07:33:19;;;;;;;1.20;0.43;;;6.60;9.00;;;;;;7360324;19;20027;-59
2022/02/16 07:35:49;;;;;;;2.00;1.00;;;6.60;10.00;;;;;;7383641;19;20138;-60
2022/02/16 07:38:21;;;;;;;0.68;0.50;;;6.60;11.50;;;;;;7359951;19;20033;-60
2022/02/16 07:40:51;;;;;;;1.42;0.60;;;6.60;11.80;;;;;;7352751;19;20078;-58
2022/02/16 07:43:21;;;;;;;0.80;0.40;;;6.60;12.90;;;;;;7370103;19;20077;-59
2022/02/16 07:45:51;;;;;;;1.08;0.50;;;6.50;12.90;;;;;;7370043;19;20017;-59
2022/02/16 07:48:21;;;;;;;1.10;0.50;;;6.60;13.20;;;;;;7365828;19;20400;-60
2022/02/16 07:50:51;;;;;;;1.02;0.50;;;6.50;13.50;;;;;;7372885;19;20092;-60
2022/02/16 07:53:23;;;;;;;0.90;0.40;;;6.50;14.50;;;;;;7391104;19;20017;-60
2022/02/16 07:55:53;;;;;;;0.82;0.43;;;6.50;13.60;;;;;;7369137;19;20015;-59
2022/02/16 07:58:24;;;;;;;1.35;0.60;;;6.50;13.50;;;;;;7366763;19;20078;-59
2022/02/16 08:00:53;;;;;;;1.08;0.50;;;6.50;15.30;;;;;;7359394;19;20014;-60
2022/02/16 08:03:27;;;;;;;0.60;0.50;;;6.60;14.50;;;;;;7367963;19;20046;-59
2022/02/16 08:05:57;;;;;;;0.63;0.30;;;6.60;14.40;;;;;;7369354;19;20475;-60
2022/02/16 08:08:30;;;;;;;1.23;0.63;;;6.60;13.70;;;;;;7389618;19;20014;-59
2022/02/16 08:11:00;;;;;;;1.98;0.50;;;6.70;14.10;;;;;;7355476;19;20049;-58
2022/02/16 08:13:30;;;;;;;1.45;0.52;;;6.70;13.60;;;;;;7366669;19;20051;-58
2022/02/16 08:16:00;;;;;;;1.77;0.77;;;6.70;13.70;;;;;;7368380;19;21173;-59
2022/02/16 08:18:30;;;;;;;0.63;0.30;;;6.70;14.60;;;;;;7366213;19;20026;-59
2022/02/16 08:21:00;;;;;;;2.58;0.60;;;6.70;13.60;;;;;;7353518;19;20503;-59
2022/02/16 08:23:35;;;;;;;4.22;0.50;;;6.70;15.10;;;;;;7385755;19;20094;-59
2022/02/16 08:26:05;;;;;;;2.30;0.63;;;6.70;16.60;;;;;;7366300;19;20010;-59
2022/02/16 08:28:35;;;;;;;0.90;0.35;;;6.70;17.20;;;;;;7368308;19;20082;-59
2022/02/16 08:31:05;;;;;;;2.47;0.40;;;6.60;17.10;;;;;;7359634;19;20007;-60
2022/02/16 08:33:36;;;;;;;1.25;0.45;;;6.60;17.60;;;;;;7368689;19;20006;-59
2022/02/16 08:36:07;;;;;;;1.23;0.50;;;6.60;17.10;;;;;;7366500;19;20086;-59
2022/02/16 08:38:41;;;;;;;3.42;1.63;;;6.60;17.70;;;;;;7387522;19;20039;-60
2022/02/16 08:41:13;;;;;;;1.67;0.60;;;6.70;18.20;;;;;;7360332;19;20003;-59
2022/02/16 08:43:43;;;;;;;1.45;0.47;;;6.70;19.00;;;;;;7367651;19;20014;-59
2022/02/16 08:46:13;;;;;;;1.33;0.47;;;6.70;19.50;;;;;;7366615;19;20007;-59
2022/02/16 08:48:43;;;;;;;3.17;1.08;;;6.70;19.50;;;;;;7364723;19;20006;-59
2022/02/16 08:51:14;;;;;;;0.70;0.40;;;6.70;19.40;;;;;;7360740;19;20019;-59
2022/02/16 08:53:46;;;;;;;0.52;0.22;;;6.70;19.30;;;;;;7385594;19;20078;-59
2022/02/16 08:56:16;;;;;;;2.00;0.50;;;6.80;19.20;;;;;;7366862;19;20078;-59
2022/02/16 08:58:46;;;;;;;2.38;0.70;;;6.80;19.40;;;;;;7364226;19;20002;-59
2022/02/16 09:01:16;;;;;;;2.92;0.57;;;6.80;20.80;;;;;;7359693;19;20011;-60
2022/02/16 09:03:46;;;;;;;3.38;0.70;;;6.80;20.70;;;;;;7365183;19;20024;-59
2022/02/16 09:06:16;;;;;;;0.60;0.40;;;6.80;20.80;;;;;;7367167;19;20075;-59
2022/02/16 09:08:49;;;;;;;1.15;0.47;;;6.80;21.20;;;;;;7387427;19;20111;-59
2022/02/16 09:11:19;;;;;;;1.60;0.60;;;6.80;21.00;;;;;;7360195;19;20010;-59
2022/02/16 09:13:49;;;;;;;0.88;0.47;;;6.70;22.50;;;;;;7365682;19;20006;-60
2022/02/16 09:16:19;;;;;;;0.93;0.60;;;6.80;24.20;;;;;;7365758;19;20580;-59
2022/02/16 09:18:49;;;;;;;1.77;0.50;;;6.80;24.90;;;;;;7363294;19;20039;-60
2022/02/16 09:21:20;;;;;;;2.75;0.50;;;6.80;24.20;;;;;;7360823;19;20013;-61
2022/02/16 09:23:54;;;;;;;0.70;0.43;;;6.80;24.60;;;;;;7373674;19;20414;-60
2022/02/16 09:26:24;;;;;;;1.55;0.65;;;6.80;24.70;;;;;;7386977;19;20010;-60
2022/02/16 09:28:54;;;;;;;2.67;0.57;;;6.90;25.30;;;;;;7360813;19;20018;-59
2022/02/16 09:31:24;;;;;;;1.35;0.60;;;6.80;24.20;;;;;;7363478;19;20006;-59
2022/02/16 09:33:54;;;;;;;0.93;0.50;;;6.90;23.70;;;;;;7365109;19;20076;-59
2022/02/16 09:36:24;;;;;;;1.13;0.40;;;7.00;24.30;;;;;;7365191;19;20155;-59
2022/02/16 09:38:58;;;;;;;3.03;0.60;;;7.00;24.00;;;;;;7360320;19;20010;-59
2022/02/16 09:41:28;;;;;;;1.45;0.50;;;7.10;23.40;;;;;;7384592;19;20360;-59
2022/02/16 09:44:00;;;;;;;2.78;0.60;;;7.00;21.20;;;;;;7363796;19;20003;-59
2022/02/16 09:46:30;;;;;;;0.80;0.47;;;7.10;22.50;;;;;;7365233;19;20536;-59
2022/02/16 09:49:00;;;;;;;1.42;0.60;;;7.20;22.60;;;;;;7358816;19;20015;-60
2022/02/16 09:51:30;;;;;;;1.27;0.50;;;7.20;21.60;;;;;;7361924;19;20029;-59
2022/02/16 09:54:03;;;;;;;1.67;0.80;;;7.20;21.00;;;;;;7363306;19;20571;-60
2022/02/16 09:56:32;;;;;;;2.80;0.70;;;7.30;21.30;;;;;;7388606;19;20081;-59
2022/02/16 09:59:03;;;;;;;4.05;0.93;;;7.30;20.10;;;;;;7357918;19;20076;-59
2022/02/16 10:01:33;;;;;;;1.95;0.50;;;7.40;20.10;;;;;;7360217;19;20019;-60
2022/02/16 10:04:09;;;;;;;1.00;0.50;;;7.50;18.90;;;;;;7363127;19;20600;-59
2022/02/16 10:06:42;;;;;;;1.20;0.47;;;7.60;17.50;;;;;;7366725;19;20023;-61
2022/02/16 10:09:27;;;;;;;0.50;0.32;;;7.60;16.00;;;;;;7357804;19;20368;-59
2022/02/16 10:12:00;;;;;;;1.85;0.50;;;7.60;16.20;;;;;;7361772;19;20021;-61
2022/02/16 10:14:31;;;;;;;2.00;0.57;;;7.70;15.10;;;;;;7384240;19;20031;-60
2022/02/16 10:17:04;;;;;;;2.55;0.65;;;7.70;15.10;;;;;;7363749;19;20380;-60
2022/02/16 10:19:49;;;;;;;4.95;2.58;;;7.70;15.30;;;;;;7357675;19;20113;-60
2022/02/16 10:22:20;;;;;;;1.80;1.00;;;7.80;14.80;;;;;;7363959;19;20017;-60
2022/02/16 10:24:53;;;;;;;7.68;1.17;;;7.80;14.40;;;;;;7363219;19;20027;-60
2022/02/16 10:27:23;;;;;;;2.55;0.50;;;7.80;15.40;;;;;;7362842;19;20009;-59
2022/02/16 10:29:53;;;;;;;1.65;0.60;;;7.80;15.00;;;;;;7355653;19;20010;-60
2022/02/16 10:32:33;;;;;;;1.25;0.70;;;7.90;14.80;;;;;;7385298;19;20010;-60
2022/02/16 10:35:03;;;;;;;0.82;0.57;;;8.00;14.50;;;;;;7363842;19;20047;-60
2022/02/16 10:37:35;;;;;;;0.80;0.70;;;8.10;13.70;;;;;;7360910;19;20016;-59
2022/02/16 10:40:14;;;;;;;0.70;0.57;;;8.10;12.60;;;;;;7354575;19;20015;-59
2022/02/16 10:42:56;;;;;;;2.58;0.70;;;8.10;14.60;;;;;;7363603;19;20493;-59
2022/02/16 10:45:28;;;;;;;0.80;0.52;;;8.10;14.70;;;;;;7365300;19;20014;-58
2022/02/16 10:48:02;;;;;;;1.30;0.52;;;8.10;14.60;;;;;;7360956;19;20022;-60
2022/02/16 10:50:34;;;;;;;0.63;0.40;;;8.20;13.90;;;;;;7375949;19;20541;-60
2022/02/16 10:53:06;;;;;;;2.50;0.80;;;8.20;13.50;;;;;;7362122;19;20443;-60
2022/02/16 10:55:45;;;;;;;1.58;0.70;;;8.30;12.60;;;;;;7360715;19;20018;-60
2022/02/16 10:58:19;;;;;;;0.75;0.50;;;8.40;12.60;;;;;;7360687;19;20023;-60
2022/02/16 11:00:51;;;;;;;0.38;0.30;;;8.50;13.60;;;;;;7349830;19;20069;-60
2022/02/16 11:03:28;;;;;;;0.50;0.30;;;8.60;12.30;;;;;;7359892;19;20006;-60
2022/02/16 11:06:00;;;;;;;0.47;0.38;;;8.70;11.30;;;;;;7361344;19;20052;-61
2022/02/16 11:08:34;;;;;;;0.57;0.32;;;8.70;11.30;;;;;;7381640;19;20026;-63
2022/02/16 11:11:27;;;;;;;0.50;0.30;;;8.80;11.40;;;;;;7359211;19;20109;-60
2022/02/16 11:14:06;;;;;;;1.45;0.55;;;8.90;11.00;;;;;;7359982;19;20015;-60
2022/02/16 11:16:36;;;;;;;2.05;0.77;;;9.00;10.50;;;;;;7359171;19;20048;-61
2022/02/16 11:19:24;;;;;;;1.98;1.17;;;9.00;10.10;;;;;;7354691;19;20010;-59
2022/02/16 11:22:06;;;;;;;1.35;0.77;;;9.10;11.20;;;;;;7359450;19;20021;-60
2022/02/16 11:24:38;;;;;;;1.25;0.60;;;9.10;10.70;;;;;;7357026;19;20014;-59
2022/02/16 11:27:31;;;;;;;2.22;0.50;;;9.10;10.10;;;;;;7353759;19;20518;-60
2022/02/16 11:30:04;;;;;;;1.25;0.50;;;9.10;10.20;;;;;;7346202;19;20018;-60
2022/02/16 11:32:36;;;;;;;1.13;0.70;;;9.20;9.90;;;;;;7374120;19;20050;-60
2022/02/16 11:35:21;;;;;;;1.80;0.80;;;9.20;9.50;;;;;;7353314;19;20027;-61
2022/02/16 11:38:07;;;;;;;1.20;0.50;;;9.30;9.60;;;;;;7355446;19;20493;-58
2022/02/16 11:40:39;;;;;;;1.48;0.60;;;9.40;8.50;;;;;;7349049;19;20045;-59
2022/02/16 11:43:15;;;;;;;1.25;0.90;;;9.40;8.80;;;;;;7359328;19;20015;-60
2022/02/16 11:45:48;;;;;;;1.53;0.50;;;9.40;9.60;;;;;;7361860;19;20013;-60
2022/02/16 11:48:38;;;;;;;0.50;0.32;;;9.50;10.40;;;;;;7359081;19;20010;-59
2022/02/16 11:51:38;;;;;;;0.50;0.30;;;9.50;9.80;;;;;;7365622;19;20010;-59
2022/02/16 11:54:38;;;;;;;1.20;0.60;;;9.60;9.70;;;;;;7360757;19;20010;-59
2022/02/16 11:57:47;;;;;;;2.03;0.65;;;9.70;9.00;;;;;;7362427;19;20016;-61
2022/02/16 12:00:32;;;;;;;2.80;1.63;;;9.80;9.00;;;;;;7350034;19;20098;-59
2022/02/16 12:03:22;;;;;;;1.63;0.77;;;9.70;10.30;;;;;;7360476;19;20052;-60
2022/02/16 12:05:58;;;;;;;0.77;0.50;;;9.70;11.90;;;;;;7363791;19;20018;-60
2022/02/16 12:08:30;;;;;;;1.00;0.40;;;9.80;11.40;;;;;;7380370;19;20077;-60
2022/02/16 12:11:08;;;;;;;0.90;0.55;;;9.80;11.30;;;;;;7350787;19;20351;-60
2022/02/16 12:13:40;;;;;;;1.13;0.70;;;9.90;12.10;;;;;;7358951;19;20006;-60
2022/02/16 12:16:15;;;;;;;1.10;0.50;;;9.90;14.20;;;;;;7360366;19;20090;-60
2022/02/16 12:18:49;;;;;;;0.40;0.20;;;9.80;17.60;;;;;;7359592;19;20077;-60
2022/02/16 12:21:25;;;;;;;1.13;0.50;;;9.70;18.80;;;;;;7356683;19;20128;-60
2022/02/16 12:23:59;;;;;;;6.65;0.57;;;9.70;20.70;;;;;;7357887;19;20018;-61
2022/02/16 12:26:36;;;;;;;1.70;0.38;;;9.50;23.30;;;;;;7380672;19;20014;-60
2022/02/16 12:29:09;;;;;;;1.85;0.40;;;9.50;22.50;;;;;;7359919;19;20097;-60
2022/02/16 12:31:43;;;;;;;2.13;0.40;;;9.50;23.80;;;;;;7366004;19;20329;-60
2022/02/16 12:34:15;;;;;;;1.50;0.30;;;9.40;25.00;;;;;;7365365;19;20011;-60
2022/02/16 12:36:48;;;;;;;1.83;0.60;;;9.40;26.70;;;;;;7366028;19;20031;-60
2022/02/16 12:39:27;;;;;;;0.55;0.30;;;9.30;26.60;;;;;;7356887;19;20018;-60
2022/02/16 12:42:02;;;;;;;0.50;0.15;;;9.30;26.60;;;;;;7365573;19;20621;-62
2022/02/16 12:44:33;;;;;;;1.85;0.47;;;9.30;27.10;;;;;;7388995;19;20018;-61
2022/02/16 12:47:08;;;;;;;1.98;0.47;;;9.40;27.40;;;;;;7367913;19;20018;-61
2022/02/16 12:49:40;;;;;;;0.35;0.20;;;9.30;27.70;;;;;;7358167;19;20066;-61
2022/02/16 12:52:12;;;;;;;0.60;0.38;;;9.40;26.70;;;;;;7363028;19;20003;-61
2022/02/16 12:54:42;;;;;;;1.05;0.70;;;9.40;26.30;;;;;;7367196;19;20020;-61
2022/02/16 12:57:14;;;;;;;6.45;0.52;;;9.50;26.10;;;;;;7367093;19;20019;-61
2022/02/16 13:02:31;;;;;;;0.30;0.20;;;9.60;22.50;;;;;;7363304;19;20050;-61
2022/02/16 13:05:04;;;;;;;1.30;0.22;;;9.60;22.00;;;;;;7363863;19;20018;-60
2022/02/16 13:07:36;;;;;;;0.30;0.20;;;9.70;20.90;;;;;;7363569;19;20014;-61
2022/02/16 13:10:08;;;;;;;1.10;0.30;;;9.70;21.00;;;;;;7360406;19;20007;-61
2022/02/16 13:12:40;;;;;;;1.45;0.22;;;9.70;20.60;;;;;;7366668;19;20027;-60
2022/02/16 13:15:12;;;;;;;0.20;0.20;;;9.80;20.00;;;;;;7364185;19;20019;-60
2022/02/16 13:17:52;;;;;;;0.50;0.20;;;9.70;20.00;;;;;;7386199;19;20606;-62
2022/02/16 13:20:29;;;;;;;0.90;0.50;;;9.80;19.50;;;;;;7355805;19;20172;-62
2022/02/16 13:23:05;;;;;;;1.08;0.50;;;9.90;19.00;;;;;;7362837;19;20006;-62
2022/02/16 13:25:37;;;;;;;3.05;0.60;;;9.90;17.30;;;;;;7365269;19;20029;-61
2022/02/16 13:28:11;;;;;;;4.32;0.65;;;10.00;16.60;;;;;;7365645;19;20344;-60
2022/02/16 13:30:43;;;;;;;0.57;0.20;;;10.00;16.30;;;;;;7356162;19;20003;-60